Airfield :
LOGIN :

Register | Disclaimer

   EN    FR    IT 

 










Legend :    VFR   Marginal VFR   IFR   Intensive IFR   Very Intensive IFR
Visi :
Ceiling :
>= 8 km
>= 3000ft
5 to 8 km
1000 to 3000 ft
1500m to 5 km
500 to 1000 ft
800 to 1500m
200 to 500 ft
< 800m
< 200 ft
Symbols :   Thunderstorms  Fog  Heavy snow  Heavy precipitations  Wind > 20 kt
SIGMETs :     Misc.  Thunderstorms  Icing  Turbulence  Mountain Waves  Volcanic Ashes







- Airport Elevation : 14 ft
- IATA code : BRE


EDDW - Bremen Neuenland

CURRENT METAR :
  • 262120Z 07005KT CAVOK 13/12 Q1025

EXPIRED METARs :
  • 262050Z 07006KT 9999 SCT046 BKN100 13/12 Q1025 NOSIG
  • 262020Z 06007KT 9999 SCT028 BKN075 14/12 Q1025 NOSIG
  • 261950Z 06006KT 9999 SCT043 SCT095 14/12 Q1025 NOSIG
  • 261920Z 06007KT 9999 FEW027 SCT045 BKN100 14/12 Q1025 TEMPO 09015G30KT 4000 TSRA BKN020CB
  • 261850Z 07006KT 9999 FEW027 SCT036 BKN140 15/12 Q1025 TEMPO 09015G30KT 4000 TSRA BKN020CB

TAF TAF EDDW
Valid from the 26 at 18:00 until the 27 at 18:00 UTC


261700Z 2618/2718 09007KT 9999 SCT025
TEMPO 2618/2624 4000 SHRA BKN012CB
PROB30
TEMPO 2618/2624 TSRA
TEMPO 2700/2708 2500 BR BKN008
TEMPO 2711/2718 3500 SHRA BKN012CB
PROB30
TEMPO 2712/2718 TSRA
No reported NOTAMs for that airfield.



MET'MAP, your aeronautical weather chart ! - Copyright ORBIFLY December 2007 - Disclaimer

ORBIFLY MET'MAP TEAM :

Programming & Development : Alexandra Zaïnal
Concept & Development : Baudouin d'Aumeries
Co-Development & Prog : Marc-Olivier Méhu
Technical & hardware support : Manuel Goepfert

Contact : metmap@orbifly.com




SOURCES & CREDITS :

   NOAA